Time;durP1;ratioP1;P1;durP2;ratioP2;P2;SDS_P1;SDS_P2;PMS_P1;PMS_P2;Temp;Humidity;BMP_temperature;BMP_pressure;BME280_temperature;BME280_humidity;BME280_pressure;Samples;Min_cycle;Max_cycle;Signal;HPM_P1;HPM_P2
2022/11/05 00:11:16;;;;;;;11.68;4.10;;;6.70;99.90;;;;;;5009936;28;20046;-44
2022/11/05 00:19:17;;;;;;;7.13;3.58;;;6.70;99.90;;;;;;5002194;28;20057;-42
2022/11/05 00:27:14;;;;;;;11.80;3.47;;;6.80;99.90;;;;;;5010956;28;20050;-40
2022/11/05 00:29:40;;;;;;;10.40;2.95;;;6.80;99.90;;;;;;4988796;28;20705;-41
2022/11/05 00:32:07;;;;;;;7.28;3.40;;;6.80;99.90;;;;;;5010334;28;20053;-43
2022/11/05 00:34:34;;;;;;;6.63;2.80;;;6.70;99.90;;;;;;5002001;28;20077;-41
2022/11/05 00:37:02;;;;;;;10.18;3.10;;;6.70;99.90;;;;;;4997876;28;20092;-41
2022/11/05 00:39:29;;;;;;;6.88;3.20;;;6.70;99.90;;;;;;4991542;28;20089;-43
2022/11/05 00:50:05;;;;;;;11.57;2.83;;;6.70;99.90;;;;;;5013230;28;20053;-42
2022/11/05 00:55:18;;;;;;;10.45;3.00;;;6.70;99.90;;;;;;5015028;28;20050;-42
2022/11/05 00:57:44;;;;;;;11.90;3.08;;;6.80;99.90;;;;;;4989875;28;20069;-41
2022/11/05 01:00:13;;;;;;;9.07;2.70;;;6.80;99.90;;;;;;5006919;28;20038;-41
2022/11/05 01:02:39;;;;;;;9.27;3.00;;;6.80;99.90;;;;;;4992823;28;20108;-41
2022/11/05 01:05:07;;;;;;;9.73;2.80;;;6.80;99.90;;;;;;5002601;28;20073;-41
2022/11/05 01:07:35;;;;;;;13.85;3.20;;;6.80;99.90;;;;;;5010813;28;20042;-42
2022/11/05 01:10:01;;;;;;;6.72;2.78;;;6.70;99.90;;;;;;5005041;28;20129;-41
2022/11/05 01:12:28;;;;;;;7.82;2.97;;;6.80;99.90;;;;;;5007345;28;20138;-41
2022/11/05 01:14:55;;;;;;;12.57;3.38;;;6.80;99.90;;;;;;5003154;28;20406;-42
2022/11/05 01:17:22;;;;;;;11.75;3.30;;;6.70;99.90;;;;;;5004949;28;20146;-42
2022/11/05 01:19:49;;;;;;;10.75;3.33;;;6.80;99.90;;;;;;5000612;28;20074;-42
2022/11/05 01:22:15;;;;;;;6.35;2.80;;;6.70;99.90;;;;;;5013131;28;20046;-42
2022/11/05 01:24:43;;;;;;;12.48;3.30;;;6.70;99.90;;;;;;4992575;28;20121;-42
2022/11/05 01:27:10;;;;;;;9.65;2.80;;;6.70;99.90;;;;;;4996186;28;20053;-42
2022/11/05 01:29:37;;;;;;;7.35;2.80;;;6.80;99.90;;;;;;4997814;28;20133;-42
2022/11/05 01:32:04;;;;;;;6.68;2.83;;;6.70;99.90;;;;;;5009690;28;20050;-41
2022/11/05 01:34:31;;;;;;;8.75;2.90;;;6.70;99.90;;;;;;5012042;28;20551;-41
2022/11/05 01:36:58;;;;;;;9.55;2.95;;;6.70;99.90;;;;;;4988382;28;20073;-41
2022/11/05 01:39:25;;;;;;;6.72;2.80;;;6.60;99.90;;;;;;4994760;28;20108;-41
2022/11/05 01:41:53;;;;;;;7.35;2.60;;;6.60;99.90;;;;;;5011655;28;20136;-41
2022/11/05 01:45:02;;;;;;;11.15;3.58;;;6.60;99.90;;;;;;4992745;28;20562;-41
2022/11/05 01:47:45;;;;;;;11.23;3.08;;;6.50;99.90;;;;;;4996278;28;20127;-42
2022/11/05 01:50:31;;;;;;;6.97;2.75;;;6.50;99.90;;;;;;5013862;28;20065;-41
2022/11/05 01:53:00;;;;;;;8.57;3.03;;;6.50;99.90;;;;;;4995633;28;20121;-41
2022/11/05 01:55:28;;;;;;;10.80;3.45;;;6.50;99.90;;;;;;4989135;28;20560;-41
2022/11/05 01:57:57;;;;;;;8.30;3.08;;;6.40;99.90;;;;;;5012371;28;20104;-41
2022/11/05 02:00:23;;;;;;;11.05;3.30;;;6.40;99.90;;;;;;4994811;28;20093;-42
2022/11/05 02:02:50;;;;;;;16.95;4.82;;;6.40;99.90;;;;;;5011864;28;20544;-41
2022/11/05 02:05:17;;;;;;;8.18;3.05;;;6.40;99.90;;;;;;5009792;28;20462;-41
2022/11/05 02:07:44;;;;;;;8.93;3.15;;;6.40;99.90;;;;;;5013689;28;20149;-42
2022/11/05 02:10:12;;;;;;;11.90;4.18;;;6.40;99.90;;;;;;4994236;28;20112;-41
2022/11/05 02:12:40;;;;;;;10.30;4.43;;;6.40;99.90;;;;;;4995481;28;20402;-43
2022/11/05 02:15:10;;;;;;;11.23;3.53;;;6.50;99.90;;;;;;4991986;28;20104;-43
2022/11/05 02:17:42;;;;;;;11.02;3.90;;;6.40;99.90;;;;;;4991120;28;20506;-41
2022/11/05 02:20:27;;;;;;;11.88;3.47;;;6.30;99.90;;;;;;5005204;28;20469;-42
2022/11/05 02:23:16;;;;;;;10.18;4.28;;;6.40;99.90;;;;;;5012840;28;20453;-42
2022/11/05 02:26:04;;;;;;;12.55;4.10;;;6.40;99.90;;;;;;4990318;28;20101;-42
2022/11/05 02:28:52;;;;;;;9.70;3.30;;;6.40;99.90;;;;;;5006493;28;20085;-43
2022/11/05 02:31:21;;;;;;;13.93;4.45;;;6.40;99.90;;;;;;4997596;28;20089;-42
2022/11/05 02:33:55;;;;;;;11.45;4.25;;;6.30;99.90;;;;;;4995753;28;20129;-42
2022/11/05 02:36:28;;;;;;;9.65;3.40;;;6.30;99.90;;;;;;4992425;28;20058;-43
2022/11/05 02:39:14;;;;;;;7.45;3.30;;;6.30;99.90;;;;;;5010208;28;20134;-40
2022/11/05 02:41:43;;;;;;;8.98;4.15;;;6.30;99.90;;;;;;5002082;28;20173;-44
2022/11/05 02:44:15;;;;;;;19.10;5.10;;;6.30;99.90;;;;;;4992274;28;20568;-43
2022/11/05 02:46:45;;;;;;;13.18;4.47;;;6.30;99.90;;;;;;4993669;28;20141;-43
2022/11/05 02:49:17;;;;;;;8.27;3.50;;;6.30;99.90;;;;;;4991730;28;20057;-42
2022/11/05 02:51:47;;;;;;;13.07;4.25;;;6.30;99.90;;;;;;5012144;28;20104;-42
2022/11/05 02:54:17;;;;;;;8.35;3.78;;;6.30;99.90;;;;;;5009981;28;20060;-41
2022/11/05 02:56:45;;;;;;;13.43;4.18;;;6.30;99.90;;;;;;5012750;28;20053;-41
2022/11/05 02:59:11;;;;;;;8.40;4.32;;;6.20;99.90;;;;;;4993720;28;20054;-42
2022/11/05 03:01:38;;;;;;;9.85;3.65;;;6.20;99.90;;;;;;5009931;28;20133;-41
2022/11/05 03:04:07;;;;;;;12.20;4.03;;;6.30;99.90;;;;;;5007774;28;20137;-41
2022/11/05 03:06:56;;;;;;;9.18;4.05;;;6.30;99.90;;;;;;4977076;28;20108;-42
2022/11/05 03:09:48;;;;;;;8.95;3.63;;;6.30;99.90;;;;;;5004109;28;20096;-43
2022/11/05 03:12:21;;;;;;;13.00;4.38;;;6.30;99.90;;;;;;5012082;28;20045;-41
2022/11/05 03:14:52;;;;;;;8.65;3.88;;;6.30;99.90;;;;;;5011881;28;20076;-42
2022/11/05 03:17:24;;;;;;;7.70;3.45;;;6.30;99.90;;;;;;5011707;28;20402;-41
2022/11/05 03:19:54;;;;;;;11.55;4.63;;;6.30;99.90;;;;;;5009864;28;20193;-42
2022/11/05 03:22:23;;;;;;;11.20;4.50;;;6.30;99.90;;;;;;5011463;28;20052;-41
2022/11/05 03:24:53;;;;;;;11.75;4.03;;;6.20;99.90;;;;;;4992711;28;20124;-42
2022/11/05 03:27:22;;;;;;;9.32;4.07;;;6.20;99.90;;;;;;5002376;28;20137;-42
2022/11/05 03:29:50;;;;;;;9.88;3.47;;;6.20;99.90;;;;;;5011977;28;20052;-43
2022/11/05 03:32:17;;;;;;;11.85;4.18;;;6.20;99.90;;;;;;4994047;28;20124;-41
2022/11/05 03:34:46;;;;;;;14.00;4.72;;;6.20;99.90;;;;;;4994351;28;20132;-41
2022/11/05 03:37:14;;;;;;;14.30;3.92;;;6.20;99.90;;;;;;4987489;28;20548;-41
2022/11/05 03:39:42;;;;;;;10.77;4.03;;;6.20;99.90;;;;;;5012035;28;20108;-41
2022/11/05 03:42:11;;;;;;;16.20;5.30;;;6.30;99.90;;;;;;5010552;28;20100;-40
2022/11/05 03:44:39;;;;;;;16.05;5.53;;;6.20;99.90;;;;;;5011757;28;20089;-41
2022/11/05 03:47:07;;;;;;;10.38;4.28;;;6.20;99.90;;;;;;4986952;28;20049;-42
2022/11/05 03:49:36;;;;;;;11.85;4.85;;;6.20;99.90;;;;;;5011118;28;20081;-43
2022/11/05 03:52:04;;;;;;;12.77;4.70;;;6.20;99.90;;;;;;5011175;28;20141;-42
2022/11/05 03:54:33;;;;;;;11.02;5.40;;;6.20;99.90;;;;;;4994580;28;20050;-41
2022/11/05 03:57:02;;;;;;;12.25;5.85;;;6.20;99.90;;;;;;5010156;28;20101;-43
2022/11/05 03:59:29;;;;;;;11.32;5.55;;;6.20;99.90;;;;;;5007954;28;20085;-42
2022/11/05 04:01:56;;;;;;;12.30;5.40;;;6.10;99.90;;;;;;4991539;28;20125;-43
2022/11/05 04:04:23;;;;;;;14.48;6.28;;;6.10;99.90;;;;;;4993056;28;20050;-42
2022/11/05 04:15:04;;;;;;;12.77;5.22;;;6.10;99.90;;;;;;4992856;28;20504;-42
2022/11/05 04:17:30;;;;;;;8.35;4.65;;;6.10;99.90;;;;;;4988726;28;20060;-42
2022/11/05 04:25:27;;;;;;;11.88;4.80;;;6.10;99.90;;;;;;4993097;28;20275;-42
2022/11/05 04:27:55;;;;;;;15.00;5.07;;;6.00;99.90;;;;;;4988440;28;20144;-42
2022/11/05 04:30:21;;;;;;;9.27;4.88;;;6.00;99.90;;;;;;4996436;28;20050;-42
2022/11/05 04:33:02;;;;;;;9.77;5.30;;;6.00;99.90;;;;;;5010795;28;20505;-41
2022/11/05 04:35:29;;;;;;;9.18;4.53;;;6.00;99.90;;;;;;4993592;28;20058;-42
2022/11/05 04:37:56;;;;;;;11.68;5.70;;;6.00;99.90;;;;;;5010397;28;20050;-41
2022/11/05 04:40:23;;;;;;;8.70;5.00;;;6.00;99.90;;;;;;5004494;28;20498;-41
2022/11/05 04:42:51;;;;;;;8.25;4.93;;;6.00;99.90;;;;;;5005098;28;20092;-41
2022/11/05 04:45:18;;;;;;;10.52;5.30;;;6.00;99.90;;;;;;5000359;28;20046;-42
2022/11/05 04:47:45;;;;;;;13.15;5.53;;;6.00;99.90;;;;;;4981594;28;20141;-41
2022/11/05 04:50:12;;;;;;;12.63;5.07;;;6.00;99.90;;;;;;4992733;28;20142;-42
2022/11/05 04:52:39;;;;;;;12.23;5.07;;;6.00;99.90;;;;;;4992488;28;20061;-42
2022/11/05 04:55:06;;;;;;;9.93;5.28;;;5.90;99.90;;;;;;5007083;28;20100;-42
2022/11/05 04:57:33;;;;;;;9.35;4.88;;;5.90;99.90;;;;;;4991450;28;20046;-43
2022/11/05 05:00:01;;;;;;;13.63;5.63;;;5.90;99.90;;;;;;5010790;28;20132;-42
2022/11/05 05:02:28;;;;;;;8.23;4.47;;;5.90;99.90;;;;;;4990845;28;20060;-42
2022/11/05 05:04:54;;;;;;;13.85;5.18;;;5.90;99.90;;;;;;4983711;28;20108;-41
2022/11/05 05:07:21;;;;;;;11.05;4.90;;;5.80;99.90;;;;;;4990302;28;20169;-43
2022/11/05 05:09:48;;;;;;;9.05;4.60;;;6.00;99.90;;;;;;4992243;28;20148;-42
2022/11/05 05:12:15;;;;;;;11.68;4.75;;;5.90;99.90;;;;;;5005144;28;20089;-41
2022/11/05 05:14:42;;;;;;;14.18;5.65;;;5.90;99.90;;;;;;5011327;28;20506;-43
2022/11/05 05:17:10;;;;;;;11.13;4.90;;;5.90;99.90;;;;;;5000226;28;20050;-42
2022/11/05 05:22:17;;;;;;;11.15;4.65;;;5.90;99.90;;;;;;5009981;28;20053;-42
2022/11/05 05:24:44;;;;;;;10.57;5.22;;;5.90;99.90;;;;;;5013727;28;20049;-42
2022/11/05 05:27:11;;;;;;;11.95;5.20;;;5.90;99.90;;;;;;4995276;28;20141;-43
2022/11/05 05:29:37;;;;;;;11.15;4.75;;;5.90;99.90;;;;;;4993028;28;20077;-41
2022/11/05 05:32:05;;;;;;;15.50;4.90;;;5.90;99.90;;;;;;5005735;28;20150;-41
2022/11/05 05:34:33;;;;;;;11.68;5.13;;;5.90;99.90;;;;;;5011711;28;20060;-41
2022/11/05 05:37:00;;;;;;;10.35;4.75;;;5.90;99.90;;;;;;5011803;28;20558;-41
2022/11/05 05:39:27;;;;;;;13.27;4.88;;;5.90;99.90;;;;;;4994210;28;20147;-41
2022/11/05 05:41:54;;;;;;;16.00;5.78;;;5.90;99.90;;;;;;5001535;28;20039;-43
2022/11/05 05:44:21;;;;;;;9.90;5.18;;;5.90;99.90;;;;;;4978563;28;20217;-42
2022/11/05 05:46:47;;;;;;;12.80;5.55;;;5.90;99.90;;;;;;4996545;28;20050;-41
2022/11/05 05:49:14;;;;;;;7.82;4.38;;;5.90;99.90;;;;;;4996393;28;20082;-41
2022/11/05 05:51:42;;;;;;;12.38;5.43;;;5.90;99.90;;;;;;5009606;28;20137;-41
2022/11/05 05:54:11;;;;;;;14.82;5.38;;;5.90;99.90;;;;;;5014412;28;20132;-41
2022/11/05 05:56:37;;;;;;;9.98;5.00;;;5.90;99.90;;;;;;4995431;28;20049;-41
2022/11/05 05:59:05;;;;;;;13.55;5.18;;;5.90;99.90;;;;;;5011992;28;20057;-43
2022/11/05 06:01:32;;;;;;;11.23;5.25;;;5.90;99.90;;;;;;5009100;28;21144;-45
2022/11/05 06:03:59;;;;;;;12.75;4.97;;;5.90;99.90;;;;;;5011738;28;20104;-41
2022/11/05 06:06:26;;;;;;;9.70;5.10;;;5.90;99.90;;;;;;5007620;28;20612;-41
2022/11/05 06:08:54;;;;;;;11.75;5.55;;;5.80;99.90;;;;;;5007987;28;20130;-41
2022/11/05 06:11:21;;;;;;;12.63;5.18;;;5.90;99.90;;;;;;4997733;28;20509;-43
2022/11/05 06:13:48;;;;;;;8.63;5.18;;;5.90;99.90;;;;;;5008301;28;20092;-46
2022/11/05 06:16:15;;;;;;;10.70;5.55;;;5.90;99.90;;;;;;5010810;28;20462;-41
2022/11/05 06:18:41;;;;;;;13.40;5.28;;;5.80;99.90;;;;;;4982168;28;20053;-41
2022/11/05 06:21:09;;;;;;;11.55;5.95;;;5.90;99.90;;;;;;4978279;28;20101;-42
2022/11/05 06:23:37;;;;;;;12.48;5.20;;;5.80;99.90;;;;;;5010102;28;20085;-43
2022/11/05 06:26:07;;;;;;;10.00;4.97;;;5.90;99.90;;;;;;5011701;28;20049;-43
2022/11/05 06:28:33;;;;;;;9.63;5.50;;;5.90;99.90;;;;;;5011665;28;20133;-41
2022/11/05 06:31:00;;;;;;;11.98;5.63;;;5.80;99.90;;;;;;5010603;28;20057;-41
2022/11/05 06:33:27;;;;;;;10.80;5.20;;;5.80;99.90;;;;;;5012213;28;20439;-42
2022/11/05 06:35:54;;;;;;;12.02;4.70;;;5.80;99.90;;;;;;4980950;28;20542;-40
2022/11/05 06:38:21;;;;;;;14.40;6.10;;;5.80;99.90;;;;;;4985564;28;20054;-40
2022/11/05 06:40:47;;;;;;;10.90;5.20;;;5.80;99.90;;;;;;5004680;28;20102;-42
2022/11/05 06:43:16;;;;;;;10.80;5.88;;;5.80;99.90;;;;;;5001645;28;20450;-42
2022/11/05 06:45:42;;;;;;;13.38;5.57;;;5.80;99.90;;;;;;5011906;28;20046;-40
2022/11/05 06:48:09;;;;;;;12.15;5.10;;;5.80;99.90;;;;;;4993180;28;20092;-41
2022/11/05 06:50:39;;;;;;;13.90;5.43;;;5.80;99.90;;;;;;5007244;28;20168;-40
2022/11/05 06:53:05;;;;;;;10.10;5.15;;;5.80;99.90;;;;;;5011047;28;20058;-42
2022/11/05 06:55:32;;;;;;;13.18;4.95;;;5.80;99.90;;;;;;5010238;28;20104;-40
2022/11/05 06:57:59;;;;;;;13.48;5.68;;;5.80;99.90;;;;;;5009665;28;20490;-42
2022/11/05 07:00:27;;;;;;;11.70;5.03;;;5.80;99.90;;;;;;5009212;28;20085;-41
2022/11/05 07:02:55;;;;;;;15.02;5.05;;;5.70;99.90;;;;;;5004320;28;20054;-41
2022/11/05 07:05:22;;;;;;;11.02;5.53;;;5.80;99.90;;;;;;4980631;28;20398;-40
2022/11/05 07:07:49;;;;;;;9.05;5.32;;;5.80;99.90;;;;;;4990116;28;20104;-40
2022/11/05 07:10:17;;;;;;;15.07;6.10;;;5.80;99.90;;;;;;5003403;28;20137;-43
2022/11/05 07:12:44;;;;;;;16.13;5.03;;;5.80;99.90;;;;;;5011771;28;20078;-41
2022/11/05 07:15:11;;;;;;;16.83;5.45;;;5.80;99.90;;;;;;5004826;28;20079;-41
2022/11/05 07:17:39;;;;;;;12.65;5.30;;;5.80;99.90;;;;;;5004700;28;20104;-41
2022/11/05 07:20:07;;;;;;;10.50;5.95;;;5.80;99.90;;;;;;5006850;28;22012;-40
2022/11/05 07:22:34;;;;;;;15.73;6.55;;;5.80;99.90;;;;;;4988309;28;20076;-40
2022/11/05 07:25:01;;;;;;;14.70;5.38;;;5.80;99.90;;;;;;5003113;28;20062;-40
2022/11/05 07:27:27;;;;;;;12.10;5.10;;;5.90;99.90;;;;;;4999698;28;20545;-41
2022/11/05 07:29:54;;;;;;;14.38;6.45;;;5.90;99.90;;;;;;4994728;28;20054;-40
2022/11/05 07:32:21;;;;;;;13.38;6.45;;;5.90;99.90;;;;;;4995948;28;20054;-39
2022/11/05 07:34:49;;;;;;;12.32;6.45;;;5.90;99.90;;;;;;5001657;28;20070;-40
2022/11/05 07:37:16;;;;;;;12.52;6.00;;;6.00;99.90;;;;;;4985617;28;20082;-42
2022/11/05 07:39:43;;;;;;;10.80;6.47;;;5.90;99.90;;;;;;5003448;28;20254;-42
2022/11/05 07:42:12;;;;;;;17.73;5.85;;;6.10;99.90;;;;;;4979031;28;20138;-44
2022/11/05 07:44:39;;;;;;;10.27;5.72;;;6.10;99.90;;;;;;5003097;28;20494;-40
2022/11/05 07:47:05;;;;;;;10.05;5.68;;;6.10;99.90;;;;;;4990037;28;20077;-42
2022/11/05 07:49:32;;;;;;;13.35;6.45;;;6.20;99.90;;;;;;4989177;28;20054;-41
2022/11/05 07:52:00;;;;;;;12.05;5.75;;;6.20;99.90;;;;;;5005654;28;20073;-43
2022/11/05 07:54:27;;;;;;;13.70;5.55;;;6.30;99.90;;;;;;5005056;28;20441;-44
2022/11/05 07:56:54;;;;;;;10.52;6.00;;;6.40;99.90;;;;;;5011210;28;20414;-40
2022/11/05 07:59:21;;;;;;;11.13;5.97;;;6.40;99.90;;;;;;4999336;28;20132;-41
2022/11/05 08:01:48;;;;;;;11.30;5.63;;;6.50;99.90;;;;;;5007058;28;20409;-41
2022/11/05 08:04:15;;;;;;;14.63;6.03;;;6.50;99.90;;;;;;4984640;28;20081;-40
2022/11/05 08:06:41;;;;;;;12.18;5.57;;;6.60;99.90;;;;;;5010055;28;20133;-42
2022/11/05 08:09:11;;;;;;;16.17;5.30;;;6.60;99.90;;;;;;5009029;28;20453;-42
2022/11/05 08:11:37;;;;;;;11.55;6.03;;;6.70;99.90;;;;;;5004615;28;20082;-42
2022/11/05 08:14:04;;;;;;;11.52;5.75;;;6.80;99.90;;;;;;4991529;28;20138;-41
2022/11/05 08:16:31;;;;;;;11.55;5.93;;;6.80;99.90;;;;;;5004487;28;20431;-42
2022/11/05 08:18:58;;;;;;;14.68;6.28;;;6.80;99.90;;;;;;4990402;28;20514;-41
2022/11/05 08:21:24;;;;;;;12.73;6.15;;;6.90;99.90;;;;;;5000116;28;20140;-42
2022/11/05 08:23:51;;;;;;;13.80;6.35;;;7.10;99.90;;;;;;4990139;28;20133;-41
2022/11/05 08:26:19;;;;;;;11.43;6.35;;;7.10;99.90;;;;;;5006646;28;20058;-40
2022/11/05 08:28:46;;;;;;;10.07;5.72;;;7.30;99.90;;;;;;4987621;28;20541;-40
2022/11/05 08:31:14;;;;;;;13.88;6.70;;;7.30;99.90;;;;;;4991619;28;20050;-40
2022/11/05 08:33:42;;;;;;;9.10;5.63;;;7.40;99.90;;;;;;4995538;28;20565;-41
2022/11/05 08:36:08;;;;;;;9.45;6.07;;;7.50;99.90;;;;;;5006656;28;20051;-43
2022/11/05 08:38:35;;;;;;;15.30;5.93;;;7.60;99.90;;;;;;4986025;28;20134;-40
2022/11/05 08:41:02;;;;;;;13.55;6.13;;;7.70;99.90;;;;;;4995690;28;20078;-40
2022/11/05 08:43:31;;;;;;;12.57;5.78;;;7.80;99.90;;;;;;4977018;28;20065;-41
2022/11/05 08:45:59;;;;;;;11.07;6.18;;;7.90;99.90;;;;;;5005850;28;20101;-41
2022/11/05 08:48:26;;;;;;;15.10;6.18;;;8.00;99.90;;;;;;4990973;28;20104;-40
2022/11/05 08:50:53;;;;;;;10.25;5.50;;;8.10;99.90;;;;;;4987577;28;20100;-40
2022/11/05 08:53:20;;;;;;;10.52;5.63;;;8.20;99.90;;;;;;5012305;28;20058;-42
2022/11/05 08:55:48;;;;;;;12.80;5.60;;;8.30;99.90;;;;;;5008687;28;20089;-40
2022/11/05 08:58:15;;;;;;;10.98;4.90;;;8.30;99.90;;;;;;5009553;28;20440;-42
2022/11/05 09:00:44;;;;;;;11.07;5.35;;;8.40;99.90;;;;;;4990570;28;20104;-40
2022/11/05 09:03:11;;;;;;;9.40;5.57;;;8.50;99.90;;;;;;5003848;28;20107;-43
2022/11/05 09:05:39;;;;;;;8.63;5.43;;;8.60;99.90;;;;;;4988469;28;20133;-40
2022/11/05 09:08:06;;;;;;;13.38;4.97;;;8.80;99.90;;;;;;5009041;28;20483;-41
2022/11/05 09:10:33;;;;;;;8.27;5.28;;;8.70;99.90;;;;;;4995469;28;20084;-42
2022/11/05 09:13:00;;;;;;;8.38;4.90;;;8.90;99.90;;;;;;4993396;28;20513;-40
2022/11/05 09:15:27;;;;;;;11.40;5.10;;;8.90;99.90;;;;;;4999040;28;20054;-40
2022/11/05 09:17:55;;;;;;;12.98;5.80;;;9.00;99.90;;;;;;4995663;28;20090;-43
2022/11/05 09:20:22;;;;;;;13.02;6.10;;;9.00;99.90;;;;;;4993904;28;20105;-41
2022/11/05 09:22:49;;;;;;;13.95;6.15;;;9.00;99.90;;;;;;5012535;28;20423;-41
2022/11/05 09:25:16;;;;;;;12.15;6.13;;;9.10;99.90;;;;;;5013052;28;20053;-41
2022/11/05 09:27:43;;;;;;;11.80;5.82;;;9.20;99.90;;;;;;5015088;28;20574;-43
2022/11/05 09:30:11;;;;;;;11.68;4.82;;;9.30;99.90;;;;;;5015066;28;20085;-42
2022/11/05 09:32:38;;;;;;;11.25;5.80;;;9.40;99.90;;;;;;5014337;28;20054;-41
2022/11/05 09:35:06;;;;;;;8.80;6.05;;;9.50;99.90;;;;;;4996258;28;20140;-42
2022/11/05 09:37:33;;;;;;;7.93;4.45;;;9.60;99.90;;;;;;4996143;28;20081;-40
2022/11/05 09:40:00;;;;;;;13.18;4.03;;;9.70;99.90;;;;;;4997494;28;20054;-40
2022/11/05 09:42:29;;;;;;;11.82;4.35;;;9.80;99.90;;;;;;5009621;28;20100;-41
2022/11/05 09:44:58;;;;;;;9.38;4.55;;;9.90;99.90;;;;;;4996740;28;20057;-40
2022/11/05 09:47:27;;;;;;;7.72;4.70;;;9.90;99.90;;;;;;4995913;28;20406;-42
2022/11/05 09:49:54;;;;;;;9.38;4.47;;;10.00;99.90;;;;;;5011742;28;20085;-42
2022/11/05 09:52:23;;;;;;;7.22;4.07;;;10.10;99.90;;;;;;4993706;28;20062;-41
2022/11/05 09:54:50;;;;;;;8.60;3.95;;;10.20;99.90;;;;;;4995243;28;20486;-41
2022/11/05 09:57:21;;;;;;;10.35;4.10;;;10.30;99.90;;;;;;4996626;28;20096;-42
2022/11/05 09:59:49;;;;;;;9.45;3.83;;;10.40;99.90;;;;;;5009788;28;20081;-42
2022/11/05 10:02:18;;;;;;;9.13;3.97;;;10.50;99.90;;;;;;5012400;28;20050;-40
2022/11/05 10:04:46;;;;;;;11.52;3.92;;;10.60;99.90;;;;;;5014628;28;20449;-42
2022/11/05 10:07:13;;;;;;;7.03;3.30;;;10.60;99.90;;;;;;5014429;28;20089;-43
2022/11/05 10:09:45;;;;;;;12.48;3.75;;;10.70;99.90;;;;;;5014468;28;20050;-40
2022/11/05 10:12:13;;;;;;;7.65;3.28;;;10.80;99.90;;;;;;5012037;28;20391;-42
2022/11/05 10:14:41;;;;;;;6.03;3.03;;;10.80;99.90;;;;;;5011584;28;20437;-41
2022/11/05 10:17:09;;;;;;;9.43;3.30;;;10.90;99.90;;;;;;4996686;28;20101;-41
2022/11/05 10:19:39;;;;;;;14.23;3.38;;;10.90;99.90;;;;;;5014220;28;20104;-41
2022/11/05 10:22:10;;;;;;;7.13;2.58;;;11.00;99.90;;;;;;4995745;28;20085;-41
2022/11/05 10:24:37;;;;;;;6.45;2.83;;;11.10;99.90;;;;;;4995972;28;20112;-41
2022/11/05 10:27:05;;;;;;;8.63;3.13;;;11.10;99.90;;;;;;4996396;28;20112;-40
2022/11/05 10:29:33;;;;;;;10.25;3.03;;;11.20;99.90;;;;;;5012041;28;20104;-40
2022/11/05 10:32:01;;;;;;;7.72;2.47;;;11.30;99.90;;;;;;4994000;28;20062;-40
2022/11/05 10:34:30;;;;;;;8.57;3.13;;;11.40;99.90;;;;;;5013747;28;20133;-40
2022/11/05 10:36:57;;;;;;;7.57;2.75;;;11.50;99.90;;;;;;5013119;28;20050;-41
2022/11/05 10:39:23;;;;;;;7.70;2.45;;;11.50;99.90;;;;;;5012682;28;20058;-40
2022/11/05 10:42:10;;;;;;;7.22;2.65;;;11.60;99.90;;;;;;5012191;28;20073;-41
2022/11/05 10:44:39;;;;;;;9.43;2.80;;;11.60;99.90;;;;;;5013834;28;20050;-41
2022/11/05 10:47:21;;;;;;;6.13;2.42;;;11.60;99.90;;;;;;5013790;28;20096;-40
2022/11/05 10:49:53;;;;;;;7.32;2.65;;;11.70;99.90;;;;;;5013309;28;20131;-41
2022/11/05 10:52:22;;;;;;;4.43;2.88;;;11.60;99.90;;;;;;4993763;28;20077;-40
2022/11/05 10:54:49;;;;;;;11.57;3.28;;;11.60;99.90;;;;;;5010253;28;20121;-41
2022/11/05 10:57:32;;;;;;;7.57;2.47;;;11.60;99.90;;;;;;5012908;28;20592;-41
2022/11/05 11:00:22;;;;;;;8.38;3.33;;;11.60;99.90;;;;;;4995162;28;20137;-40
2022/11/05 11:02:50;;;;;;;10.55;3.42;;;11.60;99.90;;;;;;4996032;28;20085;-40
2022/11/05 11:05:21;;;;;;;10.02;2.80;;;11.70;99.90;;;;;;4995615;28;20054;-40
2022/11/05 11:07:58;;;;;;;7.03;2.85;;;11.70;99.90;;;;;;5011907;28;20089;-40
2022/11/05 11:10:25;;;;;;;9.77;2.72;;;11.80;99.90;;;;;;5012559;28;20446;-39
2022/11/05 11:12:53;;;;;;;6.47;3.05;;;11.70;99.90;;;;;;4995738;28;20061;-40
2022/11/05 11:15:26;;;;;;;5.95;2.80;;;11.80;99.90;;;;;;5000115;28;20570;-39
2022/11/05 11:17:53;;;;;;;8.88;2.70;;;11.80;99.90;;;;;;5013058;28;20061;-39
2022/11/05 11:20:23;;;;;;;5.85;2.58;;;11.90;99.90;;;;;;5012845;28;20081;-39
2022/11/05 11:23:00;;;;;;;6.05;2.20;;;12.00;99.90;;;;;;4994044;28;20053;-38
2022/11/05 11:25:28;;;;;;;18.83;3.33;;;12.00;99.90;;;;;;4993533;28;20053;-39
2022/11/05 11:27:56;;;;;;;25.17;3.50;;;12.00;99.90;;;;;;5012854;28;20472;-39
2022/11/05 11:30:23;;;;;;;12.15;3.05;;;12.10;99.90;;;;;;5012105;28;20089;-39
2022/11/05 11:32:50;;;;;;;10.77;1.80;;;12.20;99.90;;;;;;5012328;28;20129;-39
2022/11/05 11:35:21;;;;;;;7.88;1.90;;;12.30;99.90;;;;;;4993239;28;20658;-39
2022/11/05 11:37:47;;;;;;;16.80;4.15;;;12.30;99.90;;;;;;4994749;28;20462;-39
2022/11/05 11:40:15;;;;;;;8.70;2.10;;;12.40;99.90;;;;;;4995444;28;20100;-39
2022/11/05 11:42:45;;;;;;;5.10;1.95;;;12.40;99.90;;;;;;5011863;28;20458;-40
2022/11/05 11:45:17;;;;;;;9.15;1.90;;;12.30;99.90;;;;;;4995332;28;20414;-39
2022/11/05 11:47:45;;;;;;;6.47;2.05;;;12.20;99.90;;;;;;4994928;28;20454;-39
2022/11/05 11:50:35;;;;;;;5.93;2.13;;;12.10;99.90;;;;;;5011516;28;20097;-38
2022/11/05 11:53:16;;;;;;;8.15;2.03;;;12.00;99.90;;;;;;5012493;28;20456;-40
2022/11/05 11:55:55;;;;;;;8.35;2.22;;;11.90;99.90;;;;;;4993937;28;20107;-38
2022/11/05 11:58:24;;;;;;;4.97;2.03;;;11.90;99.90;;;;;;4995171;28;20045;-38
2022/11/05 12:00:55;;;;;;;7.53;1.98;;;11.80;99.90;;;;;;5012284;28;20054;-38
2022/11/05 12:03:24;;;;;;;6.72;2.15;;;11.90;99.90;;;;;;5011386;28;20085;-38
2022/11/05 12:05:53;;;;;;;5.25;1.50;;;11.80;99.90;;;;;;5012301;28;20525;-38
2022/11/05 12:08:41;;;;;;;5.95;1.98;;;11.80;99.90;;;;;;5012371;28;20096;-38
2022/11/05 12:11:11;;;;;;;6.00;1.90;;;11.80;99.90;;;;;;5003349;28;20140;-38
2022/11/05 12:13:54;;;;;;;7.40;3.17;;;11.80;99.90;;;;;;4994661;28;20449;-39
2022/11/05 12:17:00;;;;;;;8.30;3.97;;;11.80;99.90;;;;;;4994583;28;20065;-37
2022/11/05 12:19:36;;;;;;;8.15;3.65;;;11.80;99.90;;;;;;4992535;28;20100;-39
2022/11/05 12:22:05;;;;;;;16.10;9.18;;;11.80;99.90;;;;;;4996605;28;20062;-38
2022/11/05 12:24:52;;;;;;;8.73;4.13;;;11.80;99.90;;;;;;4994140;28;20140;-38
2022/11/05 12:27:25;;;;;;;5.18;2.20;;;11.80;99.90;;;;;;4960068;28;20139;-40
2022/11/05 12:29:56;;;;;;;9.55;2.60;;;11.70;99.90;;;;;;5016324;28;20133;-38
2022/11/05 12:32:32;;;;;;;14.03;5.73;;;11.80;99.90;;;;;;4998560;28;20085;-37
2022/11/05 12:35:05;;;;;;;8.05;4.57;;;11.70;99.90;;;;;;5015304;28;20494;-38
2022/11/05 12:37:33;;;;;;;12.63;4.93;;;11.70;99.90;;;;;;4997516;28;20494;-38
2022/11/05 12:40:14;;;;;;;13.20;6.55;;;11.70;99.90;;;;;;5015245;28;20089;-38
2022/11/05 12:42:51;;;;;;;20.23;14.00;;;11.70;99.90;;;;;;5016173;28;20077;-38
2022/11/05 12:45:27;;;;;;;7.72;3.25;;;11.70;99.90;;;;;;5015786;28;20143;-38
2022/11/05 12:48:03;;;;;;;14.23;6.53;;;11.70;99.90;;;;;;5016083;28;20050;-38
2022/11/05 12:50:33;;;;;;;8.93;3.33;;;11.80;99.90;;;;;;5010436;28;20227;-38
2022/11/05 12:53:21;;;;;;;14.18;4.32;;;11.80;99.90;;;;;;5016099;28;20053;-38
2022/11/05 12:55:48;;;;;;;9.85;3.58;;;11.80;99.90;;;;;;4996755;28;20129;-36
2022/11/05 12:58:18;;;;;;;8.90;3.85;;;11.80;99.90;;;;;;4997579;28;20081;-38
2022/11/05 13:00:49;;;;;;;29.35;14.65;;;11.80;99.90;;;;;;4997499;28;20092;-37
2022/11/05 13:03:23;;;;;;;9.65;4.30;;;11.80;99.90;;;;;;4996721;28;20104;-37
2022/11/05 13:05:52;;;;;;;7.78;3.63;;;11.80;99.90;;;;;;5012251;28;20084;-38
2022/11/05 13:08:21;;;;;;;13.20;4.28;;;11.80;99.90;;;;;;5015755;28;20529;-37
2022/11/05 13:10:51;;;;;;;10.60;4.43;;;11.80;99.90;;;;;;5015401;28;20494;-38
2022/11/05 13:13:23;;;;;;;10.40;4.53;;;11.90;99.90;;;;;;5012199;28;20479;-37
2022/11/05 13:15:51;;;;;;;14.65;3.65;;;11.90;99.90;;;;;;4978509;28;20085;-37
2022/11/05 13:18:21;;;;;;;9.93;4.30;;;11.90;99.90;;;;;;4986681;28;20369;-37
2022/11/05 13:20:49;;;;;;;9.82;5.00;;;11.90;99.90;;;;;;4996640;28;20050;-37
2022/11/05 13:23:18;;;;;;;16.33;9.07;;;11.90;99.90;;;;;;4993704;28;20112;-38
2022/11/05 13:25:48;;;;;;;13.43;6.50;;;11.90;99.90;;;;;;4978298;28;20086;-38
2022/11/05 13:28:19;;;;;;;14.63;5.57;;;11.90;99.90;;;;;;4978227;28;20473;-38
2022/11/05 13:30:47;;;;;;;12.68;4.95;;;12.00;99.90;;;;;;4995783;28;20093;-37
2022/11/05 13:33:16;;;;;;;11.90;5.15;;;12.10;99.90;;;;;;5010892;28;20092;-38
2022/11/05 13:35:45;;;;;;;12.77;4.75;;;12.00;99.90;;;;;;5014792;28;20081;-37
2022/11/05 13:41:15;;;;;;;8.38;4.07;;;12.00;99.90;;;;;;5015214;28;20072;-37
2022/11/05 13:43:51;;;;;;;9.48;4.68;;;12.00;99.90;;;;;;5014934;28;20107;-38
2022/11/05 13:46:30;;;;;;;11.13;4.00;;;12.00;99.90;;;;;;5006194;28;20141;-38
2022/11/05 13:49:24;;;;;;;10.82;4.80;;;12.00;99.90;;;;;;5013248;28;20081;-38
2022/11/05 13:51:54;;;;;;;14.95;5.38;;;12.10;99.90;;;;;;4997284;28;20406;-38